Time;durP1;ratioP1;P1;durP2;ratioP2;P2;SDS_P1;SDS_P2;PMS_P1;PMS_P2;Temp;Humidity;BMP_temperature;BMP_pressure;BME280_temperature;BME280_humidity;BME280_pressure;Samples;Min_cycle;Max_cycle;Signal;HPM_P1;HPM_P2
2023/01/28 00:01:10;;;;;;;10.32;7.45;;;2.60;99.90;;;;;;5017255;28;20052;-71
2023/01/28 00:03:37;;;;;;;12.80;8.45;;;2.60;99.90;;;;;;5052074;28;20037;-71
2023/01/28 00:06:08;;;;;;;12.60;8.60;;;2.60;99.90;;;;;;5030519;28;20493;-71
2023/01/28 00:08:34;;;;;;;9.57;6.75;;;2.60;99.90;;;;;;5031846;28;20072;-71
2023/01/28 00:11:01;;;;;;;11.05;8.38;;;2.50;99.90;;;;;;5030702;28;20076;-71
2023/01/28 00:13:28;;;;;;;10.68;7.95;;;2.50;99.90;;;;;;5030714;28;20099;-71
2023/01/28 00:15:59;;;;;;;10.50;7.85;;;2.50;99.90;;;;;;5030235;28;20067;-71
2023/01/28 00:18:26;;;;;;;10.85;8.35;;;2.50;99.90;;;;;;5030603;28;20678;-71
2023/01/28 00:21:03;;;;;;;10.38;7.93;;;2.50;99.90;;;;;;5030494;28;20052;-71
2023/01/28 00:23:33;;;;;;;11.52;8.23;;;2.50;99.90;;;;;;5030163;28;20041;-71
2023/01/28 00:26:00;;;;;;;11.55;8.13;;;2.50;99.90;;;;;;5030448;28;20080;-71
2023/01/28 00:28:26;;;;;;;11.57;9.25;;;2.50;99.90;;;;;;5031972;28;20042;-71
2023/01/28 00:30:52;;;;;;;10.70;7.78;;;2.40;99.90;;;;;;5013268;28;20370;-71
2023/01/28 00:33:18;;;;;;;11.27;7.75;;;2.50;99.90;;;;;;5030357;28;20037;-71
2023/01/28 00:35:44;;;;;;;10.82;8.05;;;2.50;99.90;;;;;;5030402;28;20041;-71
2023/01/28 00:38:10;;;;;;;11.20;7.90;;;2.50;99.90;;;;;;5030914;28;20394;-71
2023/01/28 00:40:36;;;;;;;11.20;7.78;;;2.50;99.90;;;;;;5030347;28;20046;-71
2023/01/28 00:43:02;;;;;;;10.95;6.95;;;2.50;99.90;;;;;;5029796;28;20055;-71
2023/01/28 00:45:28;;;;;;;11.35;7.65;;;2.50;99.90;;;;;;5030282;28;20040;-71
2023/01/28 00:47:54;;;;;;;10.57;7.63;;;2.50;99.90;;;;;;5030225;28;20048;-71
2023/01/28 00:50:20;;;;;;;10.73;7.47;;;2.40;99.90;;;;;;5029538;28;20478;-71
2023/01/28 00:52:47;;;;;;;10.77;7.47;;;2.40;99.90;;;;;;5031285;28;20484;-71
2023/01/28 00:55:13;;;;;;;10.02;7.05;;;2.40;99.90;;;;;;5030020;28;20033;-71
2023/01/28 00:57:39;;;;;;;9.85;7.20;;;2.40;99.90;;;;;;5029484;28;20046;-71
2023/01/28 01:00:06;;;;;;;11.13;7.53;;;2.40;99.90;;;;;;5012367;28;20425;-71
2023/01/28 01:02:32;;;;;;;9.88;7.38;;;2.40;99.90;;;;;;5029899;28;20061;-71
2023/01/28 01:04:58;;;;;;;9.32;7.13;;;2.40;99.90;;;;;;5032294;28;20095;-71
2023/01/28 01:07:40;;;;;;;11.00;7.78;;;2.40;99.90;;;;;;5050908;28;20481;-71
2023/01/28 01:10:11;;;;;;;10.02;7.38;;;2.30;99.90;;;;;;5033237;28;20049;-71
2023/01/28 01:12:37;;;;;;;9.45;7.18;;;2.30;99.90;;;;;;5032342;28;20484;-71
2023/01/28 01:15:09;;;;;;;10.60;7.20;;;2.30;99.90;;;;;;5032920;28;20041;-71
2023/01/28 01:17:37;;;;;;;11.02;7.10;;;2.30;99.90;;;;;;5033049;28;20045;-71
2023/01/28 01:20:05;;;;;;;9.85;7.18;;;2.30;99.90;;;;;;5015739;28;20586;-71
2023/01/28 01:22:35;;;;;;;9.68;6.93;;;2.30;99.90;;;;;;5032954;28;20095;-71
2023/01/28 01:25:02;;;;;;;10.10;7.07;;;2.30;99.90;;;;;;5032098;28;20094;-71
2023/01/28 01:27:29;;;;;;;9.82;7.28;;;2.30;99.90;;;;;;5033129;28;20041;-71
2023/01/28 01:29:55;;;;;;;10.65;7.57;;;2.20;99.90;;;;;;5050358;28;20055;-71
2023/01/28 01:32:21;;;;;;;13.57;8.27;;;2.20;99.90;;;;;;5032488;28;20037;-71
2023/01/28 01:34:48;;;;;;;11.30;7.40;;;2.30;99.90;;;;;;5016364;28;20122;-71
2023/01/28 01:37:14;;;;;;;11.30;7.97;;;2.30;99.90;;;;;;5032649;28;20044;-71
2023/01/28 01:39:39;;;;;;;10.07;7.40;;;2.20;99.90;;;;;;5032240;28;20041;-71
2023/01/28 01:42:08;;;;;;;11.25;8.25;;;2.20;99.90;;;;;;5016067;28;20128;-71
2023/01/28 01:44:49;;;;;;;10.85;7.65;;;2.20;99.90;;;;;;5032664;28;20094;-71
2023/01/28 01:47:17;;;;;;;11.13;8.50;;;2.20;99.90;;;;;;5032233;28;20389;-71
2023/01/28 01:49:43;;;;;;;11.30;6.97;;;2.20;99.90;;;;;;5015857;28;20037;-71
2023/01/28 01:52:16;;;;;;;11.65;8.43;;;2.20;99.90;;;;;;5032726;28;20365;-71
2023/01/28 01:54:45;;;;;;;10.10;8.00;;;2.20;99.90;;;;;;5031996;28;20090;-71
2023/01/28 01:57:18;;;;;;;10.53;7.97;;;2.20;99.90;;;;;;5050373;28;20036;-71
2023/01/28 01:59:45;;;;;;;11.25;8.15;;;2.20;99.90;;;;;;5032503;28;20080;-71
2023/01/28 02:02:11;;;;;;;10.90;7.70;;;2.20;99.90;;;;;;5049995;28;20041;-71
2023/01/28 02:04:40;;;;;;;12.43;9.00;;;2.20;99.90;;;;;;5050334;28;20037;-71
2023/01/28 02:07:08;;;;;;;12.20;8.60;;;2.20;99.90;;;;;;5049581;28;20053;-71
2023/01/28 02:09:35;;;;;;;11.80;8.75;;;2.20;99.90;;;;;;5032307;28;20190;-71
2023/01/28 02:12:10;;;;;;;12.02;7.93;;;2.20;99.90;;;;;;5053586;28;20076;-71
2023/01/28 02:14:41;;;;;;;10.93;8.00;;;2.20;99.90;;;;;;5035690;28;20045;-71
2023/01/28 02:17:07;;;;;;;12.80;8.27;;;2.20;99.90;;;;;;5036511;28;20102;-71
2023/01/28 02:19:56;;;;;;;11.57;8.45;;;2.20;99.90;;;;;;5054037;28;20474;-71
2023/01/28 02:22:51;;;;;;;12.18;8.40;;;2.20;99.90;;;;;;5035709;28;20099;-71
2023/01/28 02:25:35;;;;;;;11.80;8.48;;;2.10;99.90;;;;;;5036060;28;20051;-71
2023/01/28 02:28:11;;;;;;;10.75;7.78;;;2.10;99.90;;;;;;5053449;28;20048;-71
2023/01/28 02:31:41;;;;;;;11.75;8.32;;;2.10;99.90;;;;;;5035866;28;20129;-71
2023/01/28 02:34:56;;;;;;;10.63;8.48;;;2.10;99.90;;;;;;4995214;28;20523;-71
2023/01/28 02:37:28;;;;;;;12.70;8.55;;;2.10;99.90;;;;;;5008542;28;20379;-71
2023/01/28 02:39:58;;;;;;;11.70;8.23;;;2.10;99.90;;;;;;4995440;28;20662;-71
2023/01/28 02:42:30;;;;;;;11.48;8.45;;;2.10;99.90;;;;;;4994406;28;20049;-71
2023/01/28 02:44:56;;;;;;;11.23;8.90;;;2.10;99.90;;;;;;4995082;28;20045;-71
2023/01/28 02:50:16;;;;;;;11.18;8.43;;;2.10;99.90;;;;;;4994392;28;20454;-71
2023/01/28 02:56:09;;;;;;;13.60;9.02;;;2.10;99.90;;;;;;5011185;28;20125;-71
2023/01/28 02:58:45;;;;;;;12.48;8.57;;;2.00;99.90;;;;;;5011237;28;20042;-71
2023/01/28 03:01:23;;;;;;;11.18;9.02;;;2.10;99.90;;;;;;5011273;28;20483;-71
2023/01/28 03:04:03;;;;;;;13.43;8.43;;;2.10;99.90;;;;;;4994263;28;20617;-71
2023/01/28 03:06:38;;;;;;;;;;;2.00;99.90;;;;;;5011361;28;20093;-71
2023/01/28 03:09:21;;;;;;;11.20;7.95;;;2.00;99.90;;;;;;5048684;28;19925;-71
2023/01/28 03:36:59;;;;;;;13.30;9.10;;;2.10;99.90;;;;;;5034734;28;20049;-71
2023/01/28 03:39:27;;;;;;;11.82;8.70;;;2.10;99.90;;;;;;5017470;28;20037;-71
2023/01/28 03:42:04;;;;;;;9.63;7.75;;;2.10;99.90;;;;;;5034722;28;20053;-71
2023/01/28 03:47:16;;;;;;;10.40;8.30;;;2.00;99.90;;;;;;5052469;28;20110;-71
2023/01/28 03:49:48;;;;;;;11.23;8.90;;;2.10;99.90;;;;;;5052255;28;20112;-71
2023/01/28 03:52:25;;;;;;;13.38;9.80;;;2.10;99.90;;;;;;5052018;28;20397;-71
2023/01/28 03:54:51;;;;;;;13.15;9.63;;;2.10;99.90;;;;;;5017888;28;20083;-71
2023/01/28 03:57:23;;;;;;;12.20;9.40;;;2.10;99.90;;;;;;5034326;28;20044;-71
2023/01/28 03:59:49;;;;;;;13.15;8.70;;;2.10;99.90;;;;;;5033886;28;20089;-71
2023/01/28 04:02:16;;;;;;;10.80;8.48;;;2.10;99.90;;;;;;5034353;28;20057;-71
2023/01/28 04:04:42;;;;;;;11.35;9.05;;;2.10;99.90;;;;;;5052434;28;20106;-71
2023/01/28 04:07:10;;;;;;;10.07;7.78;;;2.10;99.90;;;;;;5033350;28;20049;-71
2023/01/28 04:09:36;;;;;;;11.25;8.55;;;2.10;99.90;;;;;;5034287;28;20038;-71
2023/01/28 04:12:03;;;;;;;11.23;8.25;;;2.00;99.90;;;;;;5052055;28;20112;-71
2023/01/28 04:14:29;;;;;;;10.20;7.55;;;2.00;99.90;;;;;;5033523;28;20044;-71
2023/01/28 04:16:56;;;;;;;10.73;8.07;;;2.00;99.90;;;;;;5017427;28;20128;-71
2023/01/28 04:19:22;;;;;;;9.95;7.95;;;2.10;99.90;;;;;;5017429;28;20041;-71
2023/01/28 04:21:48;;;;;;;10.60;8.18;;;2.10;99.90;;;;;;5051054;28;20076;-71
2023/01/28 04:24:15;;;;;;;11.38;8.73;;;2.10;99.90;;;;;;5051703;28;20071;-71
2023/01/28 04:26:41;;;;;;;11.30;8.50;;;2.10;99.90;;;;;;5051636;28;20120;-71
2023/01/28 04:29:07;;;;;;;11.63;8.48;;;2.10;99.90;;;;;;5033117;28;20128;-71
2023/01/28 04:31:33;;;;;;;11.93;9.80;;;2.10;99.90;;;;;;5017244;28;20059;-71
2023/01/28 04:33:59;;;;;;;10.20;7.60;;;2.10;99.90;;;;;;5033226;28;20456;-73
2023/01/28 04:36:25;;;;;;;9.80;8.18;;;2.10;99.90;;;;;;5051628;28;20052;-73
2023/01/28 04:38:52;;;;;;;12.25;8.50;;;2.10;99.90;;;;;;5033549;28;20037;-73
2023/01/28 04:41:18;;;;;;;10.32;7.80;;;2.10;99.90;;;;;;5033509;28;20076;-73
2023/01/28 04:43:44;;;;;;;10.75;8.25;;;2.10;99.90;;;;;;5033477;28;20036;-73
2023/01/28 04:46:09;;;;;;;12.32;8.80;;;2.10;99.90;;;;;;5033464;28;20036;-73
2023/01/28 04:48:35;;;;;;;10.63;8.05;;;2.10;99.90;;;;;;5032805;28;20052;-73
2023/01/28 04:51:04;;;;;;;11.05;9.15;;;2.10;99.90;;;;;;5051063;28;20044;-73
2023/01/28 04:53:30;;;;;;;11.75;8.95;;;2.10;99.90;;;;;;5033511;28;20127;-73
2023/01/28 04:55:56;;;;;;;12.20;9.27;;;2.10;99.90;;;;;;5032757;28;20128;-73
2023/01/28 04:58:23;;;;;;;11.85;9.32;;;2.10;99.90;;;;;;5051271;28;20094;-73
2023/01/28 05:00:57;;;;;;;12.30;8.55;;;2.10;99.90;;;;;;5016886;28;20041;-73
2023/01/28 05:03:23;;;;;;;11.63;9.10;;;2.10;99.90;;;;;;5050824;28;20053;-73
2023/01/28 05:05:49;;;;;;;10.52;8.02;;;2.10;99.90;;;;;;5033273;28;20068;-73
2023/01/28 05:08:16;;;;;;;12.23;8.93;;;2.00;99.90;;;;;;5033064;28;20048;-74
2023/01/28 05:10:41;;;;;;;11.80;9.18;;;2.00;99.90;;;;;;5050209;28;20056;-73
2023/01/28 05:13:08;;;;;;;14.15;9.20;;;2.00;99.90;;;;;;5051145;28;20045;-73
2023/01/28 05:15:33;;;;;;;13.20;9.68;;;2.00;99.90;;;;;;5033063;28;20064;-73
2023/01/28 05:17:59;;;;;;;10.43;8.60;;;2.00;99.90;;;;;;5016180;28;20118;-73
2023/01/28 05:20:25;;;;;;;12.50;8.85;;;2.00;99.90;;;;;;5032965;28;20049;-73
2023/01/28 05:22:51;;;;;;;10.95;8.35;;;2.00;99.90;;;;;;5016147;28;20041;-73
2023/01/28 05:25:17;;;;;;;10.25;7.93;;;2.00;99.90;;;;;;5033066;28;20037;-73
2023/01/28 05:27:42;;;;;;;11.45;9.05;;;2.00;99.90;;;;;;5032727;28;20045;-73
2023/01/28 05:30:09;;;;;;;11.65;8.82;;;2.00;99.90;;;;;;5015751;28;20044;-73
2023/01/28 05:32:35;;;;;;;12.43;9.55;;;2.00;99.90;;;;;;5033075;28;20040;-73
2023/01/28 05:35:00;;;;;;;11.13;8.55;;;2.00;99.90;;;;;;5032925;28;20363;-73
2023/01/28 05:37:26;;;;;;;11.20;8.80;;;2.00;99.90;;;;;;5050064;28;20460;-73
2023/01/28 05:39:52;;;;;;;12.68;9.35;;;2.00;99.90;;;;;;5049455;28;20044;-73
2023/01/28 05:42:19;;;;;;;12.55;9.25;;;2.00;99.90;;;;;;5032840;28;20506;-73
2023/01/28 05:44:45;;;;;;;12.82;9.73;;;1.90;99.90;;;;;;5031618;28;20124;-73
2023/01/28 05:47:11;;;;;;;11.25;8.85;;;2.00;99.90;;;;;;5032598;28;20040;-73
2023/01/28 05:49:37;;;;;;;14.88;9.75;;;2.00;99.90;;;;;;5050318;28;20041;-73
2023/01/28 05:52:03;;;;;;;9.95;7.95;;;1.90;99.90;;;;;;5032036;28;20131;-73
2023/01/28 05:54:28;;;;;;;10.93;8.63;;;1.90;99.90;;;;;;5050319;28;20063;-73
2023/01/28 05:56:54;;;;;;;12.43;8.52;;;1.90;99.90;;;;;;5050432;28;20045;-73
2023/01/28 05:59:20;;;;;;;11.98;8.75;;;1.90;99.90;;;;;;5032119;28;20083;-73
2023/01/28 06:01:46;;;;;;;9.98;7.40;;;1.90;99.90;;;;;;5050540;28;20044;-73
2023/01/28 06:04:11;;;;;;;10.32;7.75;;;1.90;99.90;;;;;;5050525;28;20033;-74
2023/01/28 06:06:37;;;;;;;9.13;6.90;;;1.90;99.90;;;;;;5031622;28;20092;-73
2023/01/28 06:09:03;;;;;;;10.82;7.72;;;1.90;99.90;;;;;;5032383;28;20041;-73
2023/01/28 06:11:29;;;;;;;10.70;7.93;;;1.90;99.90;;;;;;5050172;28;20083;-73
2023/01/28 06:13:55;;;;;;;11.85;7.68;;;1.90;99.90;;;;;;5049879;28;20029;-73
2023/01/28 06:16:20;;;;;;;9.63;7.20;;;1.90;99.90;;;;;;5050437;28;20436;-73
2023/01/28 06:18:46;;;;;;;8.57;7.22;;;1.90;99.90;;;;;;5016103;28;20029;-73
2023/01/28 06:21:12;;;;;;;8.63;6.90;;;1.80;99.90;;;;;;5031895;28;20106;-73
2023/01/28 06:23:37;;;;;;;10.77;8.10;;;1.80;99.90;;;;;;5015866;28;20052;-73
2023/01/28 06:26:03;;;;;;;10.02;7.65;;;1.80;99.90;;;;;;5031890;28;20049;-73
2023/01/28 06:28:29;;;;;;;11.48;8.15;;;1.80;99.90;;;;;;5050445;28;20047;-74
2023/01/28 06:30:55;;;;;;;11.10;8.73;;;1.80;99.90;;;;;;5032098;28;20045;-74
2023/01/28 06:33:21;;;;;;;10.18;7.82;;;1.80;99.90;;;;;;5015148;28;20098;-74
2023/01/28 06:35:47;;;;;;;11.52;7.57;;;1.80;99.90;;;;;;5050070;28;20107;-74
2023/01/28 06:38:13;;;;;;;10.48;7.85;;;1.80;99.90;;;;;;5032411;28;20037;-75
2023/01/28 06:40:39;;;;;;;9.50;7.45;;;1.80;99.90;;;;;;5031521;28;20558;-73
2023/01/28 06:43:05;;;;;;;9.45;8.10;;;1.80;99.90;;;;;;5032254;28;20088;-73
2023/01/28 06:45:32;;;;;;;10.27;7.35;;;1.80;99.90;;;;;;5032368;28;20040;-73
2023/01/28 06:47:58;;;;;;;10.23;7.65;;;1.80;99.90;;;;;;5031760;28;20428;-73
2023/01/28 06:50:24;;;;;;;10.80;7.63;;;1.80;99.90;;;;;;5032099;28;20055;-73
2023/01/28 06:52:49;;;;;;;10.50;8.52;;;1.80;99.90;;;;;;5050045;28;20472;-73
2023/01/28 06:55:15;;;;;;;14.27;8.40;;;1.80;99.90;;;;;;5031361;28;20091;-73
2023/01/28 06:57:41;;;;;;;10.75;8.10;;;1.80;99.90;;;;;;5033461;28;20037;-73
2023/01/28 07:00:10;;;;;;;9.82;7.93;;;1.70;99.90;;;;;;5035655;28;20127;-73
2023/01/28 07:02:36;;;;;;;11.45;8.55;;;1.70;99.90;;;;;;5034990;28;20132;-73
2023/01/28 07:05:03;;;;;;;11.40;8.43;;;1.50;99.90;;;;;;5052815;28;20048;-74
2023/01/28 07:07:29;;;;;;;9.85;7.78;;;1.50;99.90;;;;;;5035398;28;20186;-73
2023/01/28 07:09:54;;;;;;;10.93;8.07;;;1.40;99.90;;;;;;5052558;28;20136;-72
2023/01/28 07:12:20;;;;;;;11.23;8.57;;;1.30;99.90;;;;;;5052121;28;20416;-73
2023/01/28 07:14:46;;;;;;;12.80;8.52;;;1.20;99.90;;;;;;5035224;28;20043;-72
2023/01/28 07:17:12;;;;;;;11.68;8.40;;;1.20;99.90;;;;;;5052431;28;20162;-72
2023/01/28 07:19:37;;;;;;;12.77;9.02;;;1.20;99.90;;;;;;5018667;28;20095;-73
2023/01/28 07:22:03;;;;;;;11.45;8.93;;;1.10;99.90;;;;;;5052640;28;20036;-73
2023/01/28 07:24:29;;;;;;;11.05;8.43;;;1.10;99.90;;;;;;5052771;28;20041;-73
2023/01/28 07:26:55;;;;;;;13.35;8.88;;;1.10;99.90;;;;;;5034863;28;20041;-73
2023/01/28 07:29:21;;;;;;;11.75;9.23;;;1.20;99.90;;;;;;5052118;28;20102;-73
2023/01/28 07:31:47;;;;;;;11.70;8.82;;;1.20;99.90;;;;;;5052944;28;20040;-73
2023/01/28 07:34:13;;;;;;;12.68;9.68;;;1.20;99.90;;;;;;5034899;28;20040;-73
2023/01/28 07:36:38;;;;;;;12.63;9.52;;;1.10;99.90;;;;;;5051003;28;20115;-74
2023/01/28 07:39:06;;;;;;;15.00;9.57;;;1.10;99.90;;;;;;5034769;28;20547;-74
2023/01/28 07:41:32;;;;;;;14.55;10.80;;;1.10;99.90;;;;;;5034759;28;20045;-72
2023/01/28 07:43:58;;;;;;;13.43;9.32;;;1.10;99.90;;;;;;5051853;28;20041;-73
2023/01/28 07:46:24;;;;;;;13.43;9.43;;;1.10;99.90;;;;;;5034689;28;20040;-72
2023/01/28 07:48:49;;;;;;;11.98;9.23;;;1.10;99.90;;;;;;5052483;28;20033;-72
2023/01/28 07:51:16;;;;;;;14.13;9.68;;;1.10;99.90;;;;;;5051783;28;20051;-71
2023/01/28 07:53:41;;;;;;;12.90;8.98;;;1.10;99.90;;;;;;5034293;28;20080;-71
2023/01/28 07:56:07;;;;;;;13.77;10.20;;;1.00;99.90;;;;;;5034514;28;20147;-71
2023/01/28 07:58:33;;;;;;;14.00;9.65;;;0.90;99.90;;;;;;5033678;28;20152;-71
2023/01/28 08:01:00;;;;;;;12.65;9.45;;;0.80;99.90;;;;;;5034214;28;20045;-71
2023/01/28 08:03:26;;;;;;;13.60;9.50;;;0.70;99.90;;;;;;5034530;28;20040;-70
2023/01/28 08:05:54;;;;;;;14.05;9.82;;;0.70;99.90;;;;;;5033660;28;20141;-71
2023/01/28 08:08:21;;;;;;;13.07;9.55;;;0.60;99.90;;;;;;5033584;28;20076;-71
2023/01/28 08:10:47;;;;;;;14.15;10.07;;;0.60;99.90;;;;;;5034090;28;20045;-71
2023/01/28 08:13:15;;;;;;;13.55;9.52;;;0.50;99.90;;;;;;5051551;28;20117;-71
2023/01/28 08:15:40;;;;;;;13.82;10.35;;;0.50;99.90;;;;;;5034154;28;20078;-73
2023/01/28 08:18:08;;;;;;;17.00;11.30;;;0.40;99.90;;;;;;5033612;28;20044;-71
2023/01/28 08:20:35;;;;;;;16.30;11.45;;;0.40;99.90;;;;;;5033920;28;20052;-73
2023/01/28 08:23:19;;;;;;;15.30;10.75;;;0.40;99.90;;;;;;5033899;28;20178;-72
2023/01/28 08:25:46;;;;;;;15.45;11.25;;;0.50;99.90;;;;;;5051228;28;20049;-72
2023/01/28 08:28:12;;;;;;;14.68;11.02;;;0.70;99.90;;;;;;5051764;28;20109;-72
2023/01/28 08:30:39;;;;;;;14.27;10.63;;;0.90;99.90;;;;;;5033648;28;20136;-72
2023/01/28 08:33:06;;;;;;;14.52;10.32;;;1.20;99.90;;;;;;5033402;28;20112;-72
2023/01/28 08:35:33;;;;;;;13.05;9.88;;;1.50;99.90;;;;;;5017146;28;20048;-72
2023/01/28 08:38:01;;;;;;;16.05;10.73;;;1.90;99.90;;;;;;5051814;28;20588;-72
2023/01/28 08:40:27;;;;;;;12.35;9.32;;;2.50;99.90;;;;;;5051071;28;20048;-72
2023/01/28 08:42:53;;;;;;;15.20;10.20;;;3.00;99.90;;;;;;5051412;28;20037;-72
2023/01/28 08:45:21;;;;;;;13.75;9.40;;;3.40;99.90;;;;;;5017022;28;20049;-72
2023/01/28 08:47:52;;;;;;;13.02;9.93;;;3.80;99.90;;;;;;5050951;28;20047;-72
2023/01/28 08:50:19;;;;;;;12.35;9.93;;;4.40;99.90;;;;;;5033567;28;20059;-72
2023/01/28 08:52:46;;;;;;;13.55;10.68;;;4.70;99.90;;;;;;5033302;28;20041;-72
2023/01/28 08:55:12;;;;;;;16.42;11.10;;;4.60;99.90;;;;;;5050766;28;20047;-72
2023/01/28 08:57:38;;;;;;;13.80;10.32;;;4.70;99.90;;;;;;5033136;28;20040;-72
2023/01/28 09:00:06;;;;;;;12.40;9.98;;;5.10;99.90;;;;;;5032800;28;20367;-72
2023/01/28 09:02:32;;;;;;;11.93;9.98;;;5.80;99.90;;;;;;5033189;28;20107;-72
2023/01/28 09:04:58;;;;;;;11.05;9.52;;;6.50;99.90;;;;;;5033402;28;20089;-73
2023/01/28 09:07:24;;;;;;;11.82;8.85;;;7.10;99.90;;;;;;5050369;28;20423;-73
2023/01/28 09:09:50;;;;;;;9.73;8.65;;;7.50;99.90;;;;;;5016553;28;20128;-73
2023/01/28 09:12:16;;;;;;;10.05;8.52;;;7.70;99.90;;;;;;5050964;28;20040;-73
2023/01/28 09:14:41;;;;;;;9.98;8.27;;;7.30;99.90;;;;;;5032404;28;20123;-73
2023/01/28 09:17:07;;;;;;;10.55;8.45;;;6.40;99.90;;;;;;5032751;28;20120;-73
2023/01/28 09:19:33;;;;;;;10.80;8.85;;;5.80;99.90;;;;;;5050389;28;20052;-73
2023/01/28 09:21:59;;;;;;;10.07;8.63;;;6.00;99.90;;;;;;5050138;28;20045;-74
2023/01/28 09:24:24;;;;;;;12.10;8.90;;;6.90;99.90;;;;;;5033133;28;20097;-75
2023/01/28 09:26:50;;;;;;;11.80;9.43;;;8.00;99.90;;;;;;5016695;28;20063;-75
2023/01/28 09:29:16;;;;;;;16.02;11.38;;;8.60;99.90;;;;;;5032554;28;20041;-75
2023/01/28 09:31:42;;;;;;;22.83;15.93;;;9.20;99.90;;;;;;5050769;28;20448;-75
2023/01/28 09:34:09;;;;;;;23.15;14.13;;;9.70;99.90;;;;;;5032823;28;20068;-73
2023/01/28 09:36:35;;;;;;;15.80;12.57;;;9.90;99.90;;;;;;5015690;28;20474;-73
2023/01/28 09:39:01;;;;;;;13.18;10.77;;;10.10;99.90;;;;;;5050498;28;20043;-73
2023/01/28 09:41:38;;;;;;;16.17;11.98;;;10.30;99.90;;;;;;5050606;28;20025;-73
2023/01/28 09:44:23;;;;;;;14.82;10.25;;;10.60;99.90;;;;;;5032026;28;20043;-73
2023/01/28 09:46:49;;;;;;;11.77;10.13;;;10.60;99.90;;;;;;5032772;28;20441;-73
2023/01/28 09:49:25;;;;;;;11.35;10.23;;;11.00;99.90;;;;;;5032057;28;20094;-73
2023/01/28 09:51:53;;;;;;;12.23;9.85;;;11.50;99.90;;;;;;5032451;28;20045;-73
2023/01/28 09:54:39;;;;;;;12.05;10.60;;;12.00;99.90;;;;;;5050155;28;20041;-73
2023/01/28 09:57:18;;;;;;;10.35;9.27;;;12.50;99.90;;;;;;5015524;28;20076;-73
2023/01/28 09:59:44;;;;;;;10.27;8.80;;;12.80;99.90;;;;;;5032398;28;20674;-73
2023/01/28 10:02:28;;;;;;;9.45;8.52;;;12.80;99.90;;;;;;5032401;28;20049;-73
2023/01/28 10:05:10;;;;;;;8.43;7.57;;;12.50;99.90;;;;;;5049581;28;20037;-73
2023/01/28 10:07:44;;;;;;;8.60;7.80;;;12.10;99.90;;;;;;5032771;28;20143;-73
2023/01/28 10:10:40;;;;;;;11.88;10.68;;;11.70;99.90;;;;;;5031977;28;20048;-72
2023/01/28 10:13:40;;;;;;;8.18;7.38;;;11.20;99.90;;;;;;5016143;28;20041;-72
2023/01/28 10:16:22;;;;;;;8.55;7.70;;;11.20;99.90;;;;;;5032555;28;20377;-72
2023/01/28 10:19:29;;;;;;;8.27;6.78;;;11.40;99.90;;;;;;5049701;28;20347;-72
2023/01/28 10:22:20;;;;;;;8.77;7.65;;;11.80;99.90;;;;;;5027789;28;20054;-73
2023/01/28 10:25:05;;;;;;;8.40;7.60;;;11.40;99.90;;;;;;5011015;28;20391;-72
2023/01/28 10:27:33;;;;;;;9.02;8.10;;;10.60;99.90;;;;;;5027870;28;20045;-73
2023/01/28 10:30:13;;;;;;;12.07;9.93;;;9.70;99.90;;;;;;5010522;28;20041;-73
2023/01/28 10:32:50;;;;;;;14.85;11.50;;;9.00;99.90;;;;;;5029894;28;20552;-73
2023/01/28 10:35:16;;;;;;;16.92;12.85;;;8.50;99.90;;;;;;5031199;28;20041;-72
2023/01/28 10:37:42;;;;;;;17.60;13.48;;;8.90;99.90;;;;;;5015091;28;20041;-73
2023/01/28 10:40:15;;;;;;;20.02;12.10;;;9.80;99.90;;;;;;5014170;28;20600;-74
2023/01/28 10:42:41;;;;;;;10.43;8.23;;;10.70;99.90;;;;;;5014726;28;20493;-73
2023/01/28 10:45:25;;;;;;;11.88;9.75;;;11.60;99.90;;;;;;5014010;28;20049;-73
2023/01/28 10:48:00;;;;;;;12.20;9.15;;;12.20;99.90;;;;;;5031240;28;20120;-72
2023/01/28 10:50:28;;;;;;;9.15;7.57;;;12.50;99.90;;;;;;5031122;28;20049;-74
2023/01/28 10:52:56;;;;;;;11.73;7.88;;;12.70;99.90;;;;;;5036082;28;20053;-74
2023/01/28 10:55:24;;;;;;;9.48;7.68;;;12.50;99.90;;;;;;5053558;28;20090;-73
2023/01/28 10:57:50;;;;;;;16.15;9.15;;;12.40;99.90;;;;;;5035640;28;20044;-74
2023/01/28 11:00:30;;;;;;;10.43;7.78;;;13.00;99.90;;;;;;5052944;28;20416;-73
2023/01/28 11:02:56;;;;;;;;;;;13.50;99.90;;;;;;5035885;28;20094;-72
2023/01/28 11:05:26;;;;;;;8.43;6.47;;;14.00;99.90;;;;;;5018572;28;19924;-72
2023/01/28 11:08:14;;;;;;;8.02;6.68;;;14.20;99.90;;;;;;5052769;28;20043;-71
2023/01/28 11:10:40;;;;;;;9.50;7.45;;;13.60;98.40;;;;;;5053128;28;20044;-71
2023/01/28 11:13:14;;;;;;;9.63;7.03;;;12.70;99.20;;;;;;5052453;28;20047;-72
2023/01/28 11:16:05;;;;;;;7.95;6.40;;;11.80;99.60;;;;;;5053034;28;20075;-72
2023/01/28 11:18:46;;;;;;;8.00;6.90;;;11.10;99.90;;;;;;5034661;28;20053;-71
2023/01/28 11:21:26;;;;;;;9.20;7.45;;;10.60;99.90;;;;;;5034722;28;20048;-71
2023/01/28 11:23:58;;;;;;;7.75;6.53;;;10.10;99.90;;;;;;5034908;28;20045;-71
2023/01/28 11:26:31;;;;;;;9.98;6.72;;;9.70;99.90;;;;;;5034884;28;20056;-72
2023/01/28 11:28:57;;;;;;;10.10;7.72;;;9.30;99.90;;;;;;5034345;28;20041;-71
2023/01/28 11:31:24;;;;;;;9.18;7.97;;;8.90;99.90;;;;;;5052757;28;20593;-71
2023/01/28 11:33:57;;;;;;;9.00;7.38;;;8.70;99.90;;;;;;5052162;28;20033;-71
2023/01/28 11:36:25;;;;;;;8.82;7.05;;;8.60;99.90;;;;;;5052759;28;20041;-71
2023/01/28 11:38:52;;;;;;;9.18;6.60;;;8.40;99.90;;;;;;5034957;28;20842;-71
2023/01/28 11:41:32;;;;;;;10.43;7.43;;;8.10;99.90;;;;;;5034196;28;20048;-71
2023/01/28 11:44:04;;;;;;;12.27;8.10;;;8.00;99.90;;;;;;5051513;28;20049;-71
2023/01/28 11:46:39;;;;;;;10.75;7.93;;;7.80;99.90;;;;;;5034673;28;20052;-71
2023/01/28 11:49:33;;;;;;;10.07;7.40;;;7.80;99.90;;;;;;5033966;28;20658;-71
2023/01/28 11:52:25;;;;;;;12.23;7.40;;;7.60;99.90;;;;;;5034536;28;20155;-71
2023/01/28 11:55:29;;;;;;;7.85;6.05;;;7.60;99.90;;;;;;5051838;28;20048;-71
2023/01/28 11:58:13;;;;;;;6.90;5.18;;;7.50;99.90;;;;;;5052459;28;20081;-71
2023/01/28 12:01:03;;;;;;;9.63;5.88;;;7.40;99.90;;;;;;5034291;28;20044;-71
2023/01/28 12:03:41;;;;;;;7.28;5.70;;;7.40;99.90;;;;;;5033974;28;20033;-71
2023/01/28 12:06:25;;;;;;;6.38;5.50;;;7.30;99.90;;;;;;5034094;28;20064;-71
2023/01/28 12:09:06;;;;;;;8.10;5.75;;;7.20;99.90;;;;;;5051494;28;20068;-71
2023/01/28 12:14:54;;;;;;;6.88;5.43;;;7.10;99.90;;;;;;5017462;28;20421;-71
2023/01/28 12:17:59;;;;;;;11.07;5.85;;;7.00;99.90;;;;;;5013600;28;20044;-71
2023/01/28 12:20:44;;;;;;;11.10;6.00;;;7.00;99.90;;;;;;4965984;28;20355;-70
2023/01/28 12:23:27;;;;;;;8.35;5.60;;;7.10;99.90;;;;;;5013752;28;20455;-71
2023/01/28 12:26:21;;;;;;;8.05;6.15;;;7.10;99.90;;;;;;5014397;28;20505;-71
2023/01/28 12:29:14;;;;;;;9.65;6.30;;;7.00;99.90;;;;;;5031757;28;20048;-71
2023/01/28 12:31:58;;;;;;;9.63;6.30;;;7.00;99.90;;;;;;5042944;28;20080;-71
2023/01/28 12:34:31;;;;;;;9.25;6.03;;;7.00;99.90;;;;;;5051357;28;20033;-71
2023/01/28 12:37:04;;;;;;;8.23;6.20;;;7.00;99.90;;;;;;5032825;28;20033;-71
2023/01/28 12:40:01;;;;;;;8.80;6.35;;;7.10;99.90;;;;;;5051568;28;20106;-71
2023/01/28 12:42:42;;;;;;;11.80;6.43;;;7.40;99.90;;;;;;5051196;28;20041;-70
2023/01/28 12:45:19;;;;;;;10.55;6.70;;;7.40;99.90;;;;;;5050719;28;20049;-71
2023/01/28 12:48:05;;;;;;;10.60;7.05;;;7.10;99.90;;;;;;5033389;28;20048;-70
2023/01/28 12:50:44;;;;;;;9.70;6.13;;;7.10;99.90;;;;;;5050851;28;20509;-70
2023/01/28 12:53:27;;;;;;;9.63;6.63;;;7.10;99.90;;;;;;5032662;28;20040;-70
2023/01/28 12:56:14;;;;;;;10.73;6.90;;;6.90;99.90;;;;;;5016630;28;20044;-70
2023/01/28 12:58:48;;;;;;;10.13;6.07;;;6.90;99.90;;;;;;5050776;28;20044;-70
2023/01/28 13:01:38;;;;;;;9.00;5.75;;;6.80;99.90;;;;;;5051027;28;20123;-70
2023/01/28 13:04:22;;;;;;;8.77;5.78;;;6.50;99.90;;;;;;5050415;28;20048;-71
2023/01/28 13:07:03;;;;;;;11.55;7.25;;;6.40;99.90;;;;;;5028971;28;20100;-71
2023/01/28 13:09:32;;;;;;;9.20;6.80;;;6.40;99.90;;;;;;5029620;28;20088;-70
2023/01/28 13:11:59;;;;;;;8.43;6.03;;;6.40;99.90;;;;;;5029014;28;20520;-70
2023/01/28 13:14:31;;;;;;;7.93;5.97;;;6.50;99.90;;;;;;5029450;28;20103;-70
2023/01/28 13:17:11;;;;;;;9.40;5.72;;;6.40;99.90;;;;;;5031031;28;20033;-70
2023/01/28 13:19:39;;;;;;;9.18;5.85;;;6.40;99.90;;;;;;5018068;28;20033;-70
2023/01/28 13:22:23;;;;;;;12.15;5.43;;;6.30;99.90;;;;;;5010963;28;20053;-70
2023/01/28 13:24:49;;;;;;;10.25;6.35;;;6.30;99.90;;;;;;5010624;28;20038;-70
2023/01/28 13:27:23;;;;;;;9.88;5.70;;;6.50;99.90;;;;;;5009478;28;20047;-71
2023/01/28 13:30:01;;;;;;;22.17;14.50;;;6.80;99.90;;;;;;5011276;28;20042;-70
2023/01/28 13:32:31;;;;;;;8.90;6.18;;;6.80;99.90;;;;;;5011261;28;20056;-72
2023/01/28 13:35:01;;;;;;;13.98;7.95;;;6.70;99.90;;;;;;5010263;28;20052;-71
2023/01/28 13:37:39;;;;;;;9.70;7.07;;;6.70;99.90;;;;;;5010849;28;20596;-71
2023/01/28 13:40:14;;;;;;;12.05;6.63;;;6.60;99.90;;;;;;5010280;28;20510;-71
2023/01/28 13:42:40;;;;;;;10.77;6.72;;;6.40;99.90;;;;;;4993394;28;20118;-71
2023/01/28 13:45:32;;;;;;;10.43;6.50;;;6.30;99.90;;;;;;5011100;28;20085;-71